Decoded Metar for KVTI (VINTON in IA, USA) (IATA:VTI) | Meteo·Mobile Aviation Weather
aviador You're here:

KVTI Decoded Metar

VINTON in IA, USA
Report Time2018-08-21 07:35:00
UTC Time2018-08-21 07:50:13
Flight Rules vfr VFR
Wind340° at 08 Gusting to 15 kt
W.Decomp.*RWY 34: 8.0 kt HW 0.1 kt LCW
RWY 27: 2.9 kt HW 7.5 kt RCW
W.Rank340° ranks 10
Current wind is below 340° avg. (8.3)
Visibility9999 m
Phenomena:N/A
Clouds:N/A
Expected CloudBase > 800 ft AGL from Temp-Dew spread
CeilingNone
Temp18°C (ISA +5)
Dew Point16°C (88% RH)
AAT17.1°C
QNH1012 hPa
Density Alt1,663 ft
Elevation837 ft
Report Wrong Elevation
Raw Report
KVTI 210735Z AUTO 34008G15KT 10SM CLR 18/16 A2989 RMK AO2
T01760161=

Extra information for KVTI:More info

Metar Taf Metar & Taf Last 4 Metars F.Rules Stats Wind Profile Meteogram Temp Stats Airport Information Weather charts Add Link Nearby VenuesMetar ALERT Operation Metar Decoded Social comments

AIRNAV info for KVTI